Time;durP1;ratioP1;P1;durP2;ratioP2;P2;SDS_P1;SDS_P2;PMS_P1;PMS_P2;Temp;Humidity;BMP_temperature;BMP_pressure;BME280_temperature;BME280_humidity;BME280_pressure;Samples;Min_cycle;Max_cycle;Signal;HPM_P1;HPM_P2
2023/12/27 00:02:14;;;;;;;9.38;2.28;;;3.30;99.90;;;;;;5095823;28;20399;-64
2023/12/27 00:04:40;;;;;;;8.52;2.00;;;3.30;99.90;;;;;;5094933;28;20525;-64
2023/12/27 00:07:06;;;;;;;9.95;2.08;;;3.30;99.90;;;;;;5103862;28;20036;-65
2023/12/27 00:09:31;;;;;;;15.90;2.30;;;3.40;99.90;;;;;;5098708;28;20044;-65
2023/12/27 00:11:57;;;;;;;13.13;2.85;;;3.20;99.90;;;;;;5087447;28;20866;-65
2023/12/27 00:14:23;;;;;;;9.95;2.10;;;3.20;99.90;;;;;;5053264;28;1285523;-64
2023/12/27 00:16:48;;;;;;;10.00;2.00;;;3.30;99.90;;;;;;5095896;28;20104;-63
2023/12/27 00:19:14;;;;;;;12.90;1.90;;;3.10;99.90;;;;;;5086160;28;20047;-63
2023/12/27 00:21:39;;;;;;;10.35;2.35;;;3.20;99.90;;;;;;5105019;28;20400;-63
2023/12/27 00:24:05;;;;;;;9.38;2.00;;;3.10;99.90;;;;;;5104629;28;20722;-63
2023/12/27 00:26:31;;;;;;;14.55;2.65;;;3.10;99.90;;;;;;5104947;28;20042;-63
2023/12/27 00:28:57;;;;;;;12.68;2.10;;;3.10;99.90;;;;;;5104599;28;20077;-63
2023/12/27 00:31:23;;;;;;;8.98;1.88;;;3.10;99.90;;;;;;5138241;27;20112;-64
2023/12/27 00:33:48;;;;;;;7.70;2.03;;;3.10;99.90;;;;;;5105271;28;20043;-63
2023/12/27 00:36:19;;;;;;;9.38;2.00;;;3.00;99.90;;;;;;5105416;28;20047;-64
2023/12/27 00:38:45;;;;;;;16.70;1.98;;;3.00;99.90;;;;;;5106093;27;20075;-63
2023/12/27 00:41:11;;;;;;;9.43;2.22;;;3.20;99.90;;;;;;5102969;28;20149;-62
2023/12/27 00:43:36;;;;;;;12.02;2.15;;;3.00;99.90;;;;;;5120571;27;20048;-62
2023/12/27 00:46:05;;;;;;;9.60;2.58;;;3.80;99.90;;;;;;5106745;28;20126;-63
2023/12/27 00:48:31;;;;;;;7.65;1.90;;;3.00;99.90;;;;;;5105777;28;20049;-63
2023/12/27 00:50:59;;;;;;;13.15;1.92;;;2.90;99.90;;;;;;5106360;28;20043;-64
2023/12/27 00:53:25;;;;;;;12.32;2.08;;;2.90;99.90;;;;;;5105672;28;20047;-64
2023/12/27 00:55:50;;;;;;;8.88;2.05;;;2.90;99.90;;;;;;5106451;28;20050;-64
2023/12/27 00:58:16;;;;;;;9.80;1.42;;;2.90;99.90;;;;;;5106213;28;20043;-64
2023/12/27 01:00:42;;;;;;;8.45;1.60;;;2.90;99.90;;;;;;5105002;28;20047;-64
2023/12/27 01:03:08;;;;;;;8.13;1.60;;;2.90;99.90;;;;;;5105061;28;20048;-65
2023/12/27 01:05:33;;;;;;;10.50;1.88;;;2.90;99.90;;;;;;5104458;28;20559;-64
2023/12/27 01:07:59;;;;;;;10.63;2.70;;;3.10;99.90;;;;;;5083781;28;20047;-64
2023/12/27 01:10:25;;;;;;;7.68;2.20;;;2.80;99.90;;;;;;5069423;28;20043;-64
2023/12/27 01:12:53;;;;;;;9.43;1.88;;;2.80;99.90;;;;;;5105651;28;20051;-64
2023/12/27 01:15:19;;;;;;;9.13;2.00;;;2.80;99.90;;;;;;5138198;27;20043;-65
2023/12/27 01:17:45;;;;;;;10.07;2.00;;;2.80;99.90;;;;;;5129157;27;20044;-64
2023/12/27 01:20:11;;;;;;;9.82;1.95;;;2.70;99.90;;;;;;5104065;28;20051;-64
2023/12/27 01:22:36;;;;;;;7.32;1.83;;;2.70;99.90;;;;;;5104753;28;20139;-64
2023/12/27 01:25:02;;;;;;;7.90;1.77;;;2.90;99.90;;;;;;5131589;27;20054;-65
2023/12/27 01:27:28;;;;;;;12.18;1.92;;;2.70;99.90;;;;;;5103883;28;20046;-64
2023/12/27 01:29:54;;;;;;;9.32;1.85;;;3.40;99.90;;;;;;5105507;28;20541;-64
2023/12/27 01:32:19;;;;;;;12.15;1.95;;;2.60;99.90;;;;;;5089444;28;20488;-63
2023/12/27 01:34:45;;;;;;;9.52;1.88;;;2.60;99.90;;;;;;5084036;28;20514;-63
2023/12/27 01:37:11;;;;;;;9.35;2.15;;;2.60;99.90;;;;;;5090366;28;20119;-63
2023/12/27 01:39:36;;;;;;;14.25;2.13;;;2.60;99.90;;;;;;5098077;28;20079;-63
2023/12/27 01:42:02;;;;;;;7.28;2.05;;;2.60;99.90;;;;;;5105480;28;20066;-63
2023/12/27 01:44:28;;;;;;;9.82;2.45;;;2.50;99.90;;;;;;5104481;28;20402;-63
2023/12/27 01:46:54;;;;;;;8.60;2.50;;;2.60;99.90;;;;;;5105215;28;20456;-65
2023/12/27 01:49:20;;;;;;;9.18;2.10;;;2.60;99.90;;;;;;5105576;28;20035;-62
2023/12/27 01:51:45;;;;;;;10.70;2.17;;;2.50;99.90;;;;;;5099977;28;20050;-63
2023/12/27 01:54:12;;;;;;;7.95;1.75;;;2.90;99.90;;;;;;5104109;28;20051;-63
2023/12/27 01:56:37;;;;;;;7.53;1.90;;;2.60;99.90;;;;;;5105117;28;20565;-63
2023/12/27 01:59:03;;;;;;;11.93;1.98;;;2.50;99.90;;;;;;5103876;28;20074;-63
2023/12/27 02:01:29;;;;;;;12.35;2.28;;;2.50;99.90;;;;;;5105373;28;20047;-65
2023/12/27 02:03:56;;;;;;;7.70;2.10;;;2.40;99.90;;;;;;5086987;28;20682;-64
2023/12/27 02:06:23;;;;;;;10.30;1.88;;;2.40;99.90;;;;;;5103737;28;20051;-64
2023/12/27 02:08:49;;;;;;;9.07;2.28;;;2.40;99.90;;;;;;5137100;27;20054;-63
2023/12/27 02:11:14;;;;;;;5.22;1.58;;;2.40;99.90;;;;;;5133002;27;20157;-64
2023/12/27 02:13:43;;;;;;;9.57;2.28;;;2.30;99.90;;;;;;5103945;28;20048;-63
2023/12/27 02:16:09;;;;;;;11.18;2.20;;;2.40;99.90;;;;;;5104185;28;20372;-63
2023/12/27 02:18:35;;;;;;;8.43;2.00;;;2.30;99.90;;;;;;5102547;28;20063;-64
2023/12/27 02:21:01;;;;;;;11.88;2.00;;;2.30;99.90;;;;;;5087020;28;20065;-64
2023/12/27 02:23:31;;;;;;;10.75;1.98;;;2.20;99.90;;;;;;5087180;28;20055;-64
2023/12/27 02:25:58;;;;;;;8.60;1.88;;;2.20;99.90;;;;;;5105281;28;20568;-64
2023/12/27 02:28:23;;;;;;;16.70;2.38;;;2.20;99.90;;;;;;5115348;28;20444;-62
2023/12/27 02:30:54;;;;;;;9.98;2.25;;;3.20;99.90;;;;;;5127946;27;20055;-63
2023/12/27 02:33:19;;;;;;;12.13;2.80;;;2.20;99.90;;;;;;5102734;28;20040;-63
2023/12/27 02:35:45;;;;;;;9.25;2.40;;;2.20;99.90;;;;;;5103219;28;20050;-63
2023/12/27 02:38:11;;;;;;;11.77;2.30;;;2.70;99.90;;;;;;5103586;28;20047;-63
2023/12/27 02:40:36;;;;;;;8.40;2.20;;;2.80;99.90;;;;;;5130997;27;20134;-63
2023/12/27 02:43:02;;;;;;;9.00;1.95;;;2.20;99.90;;;;;;5092712;28;20059;-62
2023/12/27 02:45:28;;;;;;;9.73;2.42;;;2.10;99.90;;;;;;5095538;28;20043;-62
2023/12/27 02:47:54;;;;;;;6.25;1.95;;;2.10;99.90;;;;;;5084461;28;20507;-65
2023/12/27 02:50:19;;;;;;;8.23;2.15;;;2.10;99.90;;;;;;5137826;27;20028;-63
2023/12/27 02:52:45;;;;;;;11.10;3.45;;;2.10;99.90;;;;;;5103156;28;20035;-63
2023/12/27 02:55:11;;;;;;;10.43;2.45;;;2.30;99.90;;;;;;5103667;28;20109;-63
2023/12/27 02:57:36;;;;;;;10.98;2.67;;;2.60;99.90;;;;;;5103422;28;20048;-64
2023/12/27 03:00:03;;;;;;;9.93;2.65;;;3.10;99.90;;;;;;5104417;28;20082;-63
2023/12/27 03:02:29;;;;;;;12.35;3.00;;;2.10;99.90;;;;;;5105144;28;20048;-63
2023/12/27 03:04:55;;;;;;;6.88;1.92;;;2.30;99.90;;;;;;5139281;27;20066;-62
2023/12/27 03:07:23;;;;;;;6.78;2.22;;;2.00;99.90;;;;;;5107271;28;20093;-63
2023/12/27 03:09:49;;;;;;;9.30;2.53;;;2.00;99.90;;;;;;5090247;28;20051;-63
2023/12/27 03:12:15;;;;;;;7.38;2.00;;;2.10;99.90;;;;;;5105494;28;20049;-63
2023/12/27 03:14:40;;;;;;;7.43;1.98;;;2.00;99.90;;;;;;5104657;28;20040;-63
2023/12/27 03:17:06;;;;;;;7.18;2.15;;;2.00;99.90;;;;;;5108646;28;20797;-63
2023/12/27 03:19:32;;;;;;;7.97;2.10;;;2.00;99.90;;;;;;5106832;28;20052;-64
2023/12/27 03:21:57;;;;;;;9.02;2.47;;;2.00;99.90;;;;;;5107922;28;20106;-64
2023/12/27 03:24:23;;;;;;;15.25;2.40;;;2.00;99.90;;;;;;5107063;28;20035;-64
2023/12/27 03:26:49;;;;;;;13.45;2.97;;;2.00;99.90;;;;;;5106831;28;20052;-62
2023/12/27 03:29:15;;;;;;;9.55;2.30;;;2.00;99.90;;;;;;5104902;28;20579;-64
2023/12/27 03:31:40;;;;;;;7.72;2.13;;;2.00;99.90;;;;;;5103129;28;20706;-64
2023/12/27 03:34:06;;;;;;;12.20;2.10;;;2.00;99.90;;;;;;5108476;27;20046;-64
2023/12/27 03:36:32;;;;;;;9.38;1.90;;;2.00;99.90;;;;;;5120841;27;20048;-63
2023/12/27 03:38:58;;;;;;;9.10;2.10;;;2.00;99.90;;;;;;5107210;28;20120;-64
2023/12/27 03:41:24;;;;;;;11.85;2.00;;;2.00;99.90;;;;;;5106891;28;20488;-62
2023/12/27 03:43:54;;;;;;;9.82;2.10;;;2.00;99.90;;;;;;5107059;28;20110;-62
2023/12/27 03:46:23;;;;;;;13.18;2.42;;;2.00;99.90;;;;;;5099390;28;20093;-62
2023/12/27 03:48:53;;;;;;;6.85;2.70;;;2.00;99.90;;;;;;5106433;28;20043;-62
2023/12/27 03:51:22;;;;;;;6.45;2.10;;;2.00;99.90;;;;;;5107130;28;20595;-62
2023/12/27 03:53:47;;;;;;;9.15;2.42;;;2.00;99.90;;;;;;5108048;27;20063;-62
2023/12/27 03:56:13;;;;;;;7.82;1.80;;;2.00;99.90;;;;;;5107799;28;20605;-62
2023/12/27 03:58:42;;;;;;;12.15;2.15;;;2.00;99.90;;;;;;5106595;28;20048;-64
2023/12/27 04:01:08;;;;;;;11.23;2.30;;;2.60;99.90;;;;;;5109152;27;20090;-64
2023/12/27 04:03:34;;;;;;;7.53;2.35;;;2.00;99.90;;;;;;5113322;27;20563;-64
2023/12/27 04:06:00;;;;;;;7.93;1.75;;;2.00;99.90;;;;;;5106714;28;20077;-64
2023/12/27 04:08:26;;;;;;;14.65;2.28;;;2.00;99.90;;;;;;5105482;28;20036;-64
2023/12/27 04:10:51;;;;;;;5.55;1.65;;;2.70;99.90;;;;;;5105396;28;20043;-64
2023/12/27 04:13:18;;;;;;;13.00;2.60;;;2.00;99.90;;;;;;5088900;28;20043;-64
2023/12/27 04:15:44;;;;;;;12.52;2.15;;;2.00;99.90;;;;;;5133051;27;20048;-62
2023/12/27 04:18:11;;;;;;;9.80;2.10;;;2.00;99.90;;;;;;5105393;28;20050;-63
2023/12/27 04:20:37;;;;;;;10.98;2.30;;;2.00;99.90;;;;;;5105909;28;20043;-63
2023/12/27 04:23:03;;;;;;;11.13;2.38;;;2.30;99.90;;;;;;5106855;28;20032;-63
2023/12/27 04:25:29;;;;;;;10.52;2.47;;;2.00;99.90;;;;;;5106446;28;20071;-63
2023/12/27 04:27:55;;;;;;;13.32;2.13;;;2.00;99.90;;;;;;5106843;28;20465;-62
2023/12/27 04:30:23;;;;;;;8.65;1.92;;;2.00;99.90;;;;;;5106939;28;20142;-62
2023/12/27 04:32:49;;;;;;;13.00;2.10;;;2.00;99.90;;;;;;5104873;27;20055;-64
2023/12/27 04:35:15;;;;;;;9.85;2.00;;;2.30;99.90;;;;;;5098392;27;20051;-64
2023/12/27 04:37:41;;;;;;;16.42;2.67;;;2.00;99.90;;;;;;5119558;27;20694;-64
2023/12/27 04:40:07;;;;;;;11.82;2.45;;;2.00;99.90;;;;;;5103536;28;20080;-62
2023/12/27 04:42:33;;;;;;;12.50;1.98;;;2.00;99.90;;;;;;5097966;28;20133;-63
2023/12/27 04:44:59;;;;;;;14.85;2.17;;;2.00;99.90;;;;;;5106447;28;20047;-63
2023/12/27 04:47:24;;;;;;;13.88;2.47;;;2.10;99.90;;;;;;5106000;28;20114;-63
2023/12/27 04:49:50;;;;;;;10.25;2.63;;;2.00;99.90;;;;;;5106543;28;20132;-63
2023/12/27 04:52:16;;;;;;;16.52;2.60;;;2.00;99.90;;;;;;5083764;28;20050;-63
2023/12/27 04:54:42;;;;;;;12.88;2.70;;;2.00;99.90;;;;;;5132932;27;20404;-62
2023/12/27 04:57:08;;;;;;;12.32;2.63;;;2.00;99.90;;;;;;5101221;28;20036;-63
2023/12/27 04:59:33;;;;;;;12.35;2.40;;;2.10;99.90;;;;;;5104730;28;20046;-64
2023/12/27 05:01:59;;;;;;;18.02;3.20;;;2.10;99.90;;;;;;5105068;28;20700;-63
2023/12/27 05:04:25;;;;;;;17.92;2.65;;;2.10;99.90;;;;;;5106429;28;20035;-62
2023/12/27 05:06:51;;;;;;;12.95;2.70;;;2.10;99.90;;;;;;5109292;27;20098;-63
2023/12/27 05:09:17;;;;;;;12.63;2.83;;;2.90;99.90;;;;;;5104320;28;20058;-63
2023/12/27 05:11:43;;;;;;;11.95;2.00;;;2.10;99.90;;;;;;5104569;28;20043;-63
2023/12/27 05:14:08;;;;;;;14.90;2.55;;;2.30;99.90;;;;;;5105075;28;20031;-64
2023/12/27 05:16:34;;;;;;;13.27;2.22;;;2.10;99.90;;;;;;5103706;28;20039;-64
2023/12/27 05:19:00;;;;;;;13.13;2.70;;;2.10;99.90;;;;;;5106029;28;20032;-64
2023/12/27 05:21:25;;;;;;;8.68;2.40;;;2.10;99.90;;;;;;5105934;28;20047;-64
2023/12/27 05:23:51;;;;;;;11.55;3.20;;;2.10;99.90;;;;;;5104423;28;20051;-64
2023/12/27 05:26:17;;;;;;;16.77;3.00;;;2.10;99.90;;;;;;5103408;28;20044;-64
2023/12/27 05:28:42;;;;;;;15.27;3.28;;;2.10;99.90;;;;;;5104753;28;20637;-64
2023/12/27 05:31:08;;;;;;;16.38;2.70;;;2.10;99.90;;;;;;5105589;28;20056;-64
2023/12/27 05:33:34;;;;;;;12.80;3.47;;;2.30;99.90;;;;;;5104409;28;20062;-64
2023/12/27 05:36:00;;;;;;;13.02;2.45;;;2.20;99.90;;;;;;5105032;28;20053;-64
2023/12/27 05:38:26;;;;;;;13.70;3.13;;;2.20;99.90;;;;;;5121126;27;20458;-64
2023/12/27 05:40:51;;;;;;;13.00;3.47;;;2.20;99.90;;;;;;5099939;28;20051;-65
2023/12/27 05:43:17;;;;;;;14.45;3.17;;;2.20;99.90;;;;;;5101645;28;20035;-64
2023/12/27 05:45:43;;;;;;;11.98;2.85;;;2.20;99.90;;;;;;5102750;28;20065;-64
2023/12/27 05:48:08;;;;;;;16.42;3.20;;;2.30;99.90;;;;;;5102548;28;20043;-63
2023/12/27 05:50:34;;;;;;;16.02;2.90;;;2.30;99.90;;;;;;5084410;28;20122;-63
2023/12/27 05:53:00;;;;;;;9.05;3.03;;;2.20;99.90;;;;;;5101400;28;20047;-63
2023/12/27 05:55:25;;;;;;;8.93;2.53;;;2.30;99.90;;;;;;5102298;28;20045;-63
2023/12/27 05:57:51;;;;;;;7.72;2.28;;;2.20;99.90;;;;;;5100986;28;20055;-63
2023/12/27 06:00:17;;;;;;;10.38;2.40;;;2.30;99.90;;;;;;5101170;28;20127;-63
2023/12/27 06:02:43;;;;;;;8.75;2.22;;;2.30;99.90;;;;;;5100308;28;20048;-64
2023/12/27 06:05:12;;;;;;;13.60;2.15;;;2.20;99.90;;;;;;5102547;28;20047;-63
2023/12/27 06:07:37;;;;;;;13.48;2.30;;;2.70;99.90;;;;;;5103001;28;20040;-63
2023/12/27 06:10:05;;;;;;;13.68;2.70;;;2.30;99.90;;;;;;5101651;28;20043;-62
2023/12/27 06:12:31;;;;;;;12.18;2.97;;;2.20;99.90;;;;;;5104389;28;20054;-63
2023/12/27 06:14:57;;;;;;;13.57;3.33;;;2.30;99.90;;;;;;5104217;28;20758;-63
2023/12/27 06:17:22;;;;;;;8.20;2.53;;;2.30;99.90;;;;;;5105322;28;20104;-63
2023/12/27 06:19:49;;;;;;;11.88;3.13;;;2.30;99.90;;;;;;5101388;28;20506;-63
2023/12/27 06:22:15;;;;;;;13.23;3.28;;;2.90;99.90;;;;;;5104067;28;20048;-63
2023/12/27 06:24:41;;;;;;;13.60;3.63;;;2.30;99.90;;;;;;5101663;28;20067;-64
2023/12/27 06:27:07;;;;;;;13.27;3.60;;;2.60;99.90;;;;;;5086370;28;20059;-64
2023/12/27 06:29:33;;;;;;;10.00;4.05;;;2.30;99.90;;;;;;5104661;28;20459;-64
2023/12/27 06:32:00;;;;;;;12.13;3.75;;;2.30;99.90;;;;;;5090112;28;20052;-62
2023/12/27 06:34:26;;;;;;;15.35;3.63;;;2.40;99.90;;;;;;5135657;27;20043;-63
2023/12/27 06:36:51;;;;;;;16.00;3.50;;;2.80;99.90;;;;;;5103157;28;20051;-63
2023/12/27 06:39:17;;;;;;;12.07;3.67;;;2.50;99.90;;;;;;5107249;28;20031;-63
2023/12/27 06:41:43;;;;;;;13.40;2.90;;;2.50;99.90;;;;;;5107201;28;20551;-63
2023/12/27 06:44:09;;;;;;;15.38;3.53;;;2.50;99.90;;;;;;5104967;28;20124;-64
2023/12/27 06:46:35;;;;;;;13.70;2.65;;;2.50;99.90;;;;;;5107881;28;20129;-63
2023/12/27 06:49:01;;;;;;;16.50;3.88;;;2.60;99.90;;;;;;5138925;27;20062;-64
2023/12/27 06:51:27;;;;;;;16.25;3.22;;;2.60;99.90;;;;;;5108671;28;20035;-74
2023/12/27 06:53:52;;;;;;;15.13;3.40;;;2.60;99.90;;;;;;5135724;27;20077;-63
2023/12/27 06:56:18;;;;;;;13.50;3.03;;;2.70;99.90;;;;;;5128623;27;20043;-63
2023/12/27 06:58:44;;;;;;;16.75;3.22;;;2.70;99.90;;;;;;5103729;28;20157;-63
2023/12/27 07:01:11;;;;;;;15.73;3.60;;;2.70;99.90;;;;;;5106098;28;20472;-62
2023/12/27 07:03:37;;;;;;;16.73;3.35;;;2.70;99.90;;;;;;5106836;28;20056;-63
2023/12/27 07:06:03;;;;;;;16.05;3.03;;;3.20;99.90;;;;;;5107880;28;20510;-65
2023/12/27 07:08:31;;;;;;;14.23;2.88;;;2.70;99.90;;;;;;5142005;27;20076;-64
2023/12/27 07:10:56;;;;;;;13.77;3.33;;;2.80;99.90;;;;;;5099921;28;20121;-63
2023/12/27 07:13:22;;;;;;;11.90;3.20;;;2.80;99.90;;;;;;5106968;28;20043;-64
2023/12/27 07:15:48;;;;;;;12.05;3.15;;;2.80;99.90;;;;;;5107185;28;20613;-64
2023/12/27 07:18:13;;;;;;;12.80;2.72;;;2.90;99.90;;;;;;5092643;28;20047;-64
2023/12/27 07:20:39;;;;;;;16.63;3.13;;;2.80;99.90;;;;;;5089211;28;20050;-64
2023/12/27 07:23:05;;;;;;;15.60;3.50;;;2.90;99.90;;;;;;5108723;28;20040;-64
2023/12/27 07:25:34;;;;;;;14.60;2.60;;;3.40;99.90;;;;;;5097833;28;20042;-66
2023/12/27 07:27:59;;;;;;;15.52;3.72;;;2.90;99.90;;;;;;5108043;28;20054;-63
2023/12/27 07:30:25;;;;;;;13.88;3.03;;;2.90;99.90;;;;;;5141363;27;20039;-62
2023/12/27 07:32:52;;;;;;;15.10;3.08;;;3.30;99.90;;;;;;5103815;28;20077;-64
2023/12/27 07:35:17;;;;;;;13.32;3.53;;;3.00;99.90;;;;;;5094487;28;20055;-63
2023/12/27 07:37:45;;;;;;;14.80;3.45;;;3.00;99.90;;;;;;5107946;28;20039;-63
2023/12/27 07:40:12;;;;;;;13.93;2.72;;;3.00;99.90;;;;;;5107927;28;20534;-64
2023/12/27 07:42:37;;;;;;;15.68;2.60;;;3.00;99.90;;;;;;5106698;28;20950;-64
2023/12/27 07:45:04;;;;;;;15.75;3.22;;;3.00;99.90;;;;;;5106681;28;20040;-65
2023/12/27 07:47:30;;;;;;;12.25;2.75;;;3.00;99.90;;;;;;5105024;28;20092;-65
2023/12/27 07:49:55;;;;;;;14.10;3.22;;;3.10;99.90;;;;;;5106004;28;20488;-64
2023/12/27 07:52:21;;;;;;;16.27;3.25;;;3.10;99.90;;;;;;5104024;28;20046;-64
2023/12/27 07:54:47;;;;;;;10.00;2.72;;;3.10;99.90;;;;;;5129301;27;20348;-65
2023/12/27 07:57:12;;;;;;;14.23;2.22;;;3.10;99.90;;;;;;5089576;28;20083;-64
2023/12/27 07:59:38;;;;;;;13.98;3.10;;;3.10;99.90;;;;;;5105521;28;20567;-64
2023/12/27 08:02:04;;;;;;;8.88;2.08;;;3.40;99.90;;;;;;5108212;28;20498;-65
2023/12/27 08:04:30;;;;;;;15.40;2.50;;;3.10;99.90;;;;;;5098098;28;20097;-65
2023/12/27 08:06:56;;;;;;;22.55;2.30;;;3.20;99.90;;;;;;5128872;27;20051;-64
2023/12/27 08:09:22;;;;;;;19.00;2.95;;;3.20;99.90;;;;;;5093499;28;20128;-63
2023/12/27 08:11:48;;;;;;;15.48;2.72;;;3.20;99.90;;;;;;5103230;28;20039;-63
2023/12/27 08:14:14;;;;;;;13.48;2.15;;;3.20;99.90;;;;;;5087363;28;20096;-63
2023/12/27 08:16:39;;;;;;;16.73;2.20;;;3.20;99.90;;;;;;5072167;28;20142;-63
2023/12/27 08:19:06;;;;;;;7.43;2.58;;;3.20;99.90;;;;;;5096846;28;20051;-65
2023/12/27 08:21:31;;;;;;;12.82;2.40;;;3.50;99.90;;;;;;5095697;28;20147;-64
2023/12/27 08:23:57;;;;;;;11.85;2.33;;;3.20;99.90;;;;;;5122130;27;20073;-64
2023/12/27 08:26:23;;;;;;;15.38;2.70;;;3.30;99.90;;;;;;5091970;28;20554;-63
2023/12/27 08:28:50;;;;;;;14.13;2.55;;;3.50;99.90;;;;;;5101109;28;20046;-64
2023/12/27 08:31:18;;;;;;;15.75;2.53;;;3.30;99.90;;;;;;5098244;28;20043;-63
2023/12/27 08:33:48;;;;;;;14.65;2.20;;;4.10;99.90;;;;;;5099829;28;20407;-63
2023/12/27 08:36:14;;;;;;;9.55;2.40;;;3.40;99.90;;;;;;5096092;28;20686;-63
2023/12/27 08:38:41;;;;;;;12.07;2.30;;;3.60;99.90;;;;;;5095737;28;20046;-63
2023/12/27 08:41:06;;;;;;;13.02;2.35;;;3.40;99.90;;;;;;5098080;28;20046;-64
2023/12/27 08:43:35;;;;;;;12.25;2.30;;;4.30;99.90;;;;;;5095137;28;20039;-64
2023/12/27 08:46:01;;;;;;;12.70;2.20;;;3.50;99.90;;;;;;5096670;28;20548;-64
2023/12/27 08:48:27;;;;;;;14.68;2.97;;;3.50;99.90;;;;;;5096489;28;20154;-63
2023/12/27 08:50:52;;;;;;;13.77;2.70;;;3.50;99.90;;;;;;5098579;28;20092;-63
2023/12/27 08:53:18;;;;;;;24.95;3.00;;;3.80;99.90;;;;;;5129122;27;20047;-64
2023/12/27 08:55:44;;;;;;;14.27;4.13;;;4.00;99.90;;;;;;5095137;27;20512;-64
2023/12/27 08:58:11;;;;;;;10.25;2.25;;;3.90;99.90;;;;;;5091770;28;20043;-64
2023/12/27 09:00:37;;;;;;;19.55;2.90;;;3.50;99.90;;;;;;5094328;28;20112;-63
2023/12/27 09:03:03;;;;;;;10.90;2.60;;;3.60;99.90;;;;;;5081751;28;20051;-64
2023/12/27 09:05:29;;;;;;;13.02;2.63;;;3.60;99.90;;;;;;5101200;28;20052;-64
2023/12/27 09:07:55;;;;;;;17.45;2.97;;;3.90;99.90;;;;;;5099543;28;20042;-64
2023/12/27 09:10:24;;;;;;;15.15;2.90;;;4.40;99.90;;;;;;5100411;28;20047;-64
2023/12/27 09:12:49;;;;;;;14.75;3.80;;;3.60;99.90;;;;;;5095430;28;20043;-64
2023/12/27 09:15:15;;;;;;;14.25;3.55;;;3.60;99.90;;;;;;5095835;28;20660;-64
2023/12/27 09:17:41;;;;;;;17.55;3.33;;;3.60;99.90;;;;;;5096400;28;20229;-63
2023/12/27 09:20:08;;;;;;;11.73;2.80;;;3.70;99.90;;;;;;5095070;28;20040;-64
2023/12/27 09:22:34;;;;;;;19.02;3.53;;;3.70;99.90;;;;;;5078510;28;20949;-63
2023/12/27 09:24:59;;;;;;;13.10;3.08;;;4.10;99.90;;;;;;5127963;27;20047;-63
2023/12/27 09:27:26;;;;;;;14.75;3.33;;;3.70;99.90;;;;;;5092294;28;20039;-63
2023/12/27 09:29:52;;;;;;;13.25;3.30;;;3.70;99.90;;;;;;5097155;28;20040;-65
2023/12/27 09:32:18;;;;;;;17.00;3.95;;;3.70;99.90;;;;;;5100248;28;20035;-64
2023/12/27 09:34:43;;;;;;;16.45;4.35;;;3.80;99.90;;;;;;5130559;27;20036;-62
2023/12/27 09:37:09;;;;;;;17.35;4.00;;;4.50;99.90;;;;;;5101742;28;20074;-63
2023/12/27 09:39:35;;;;;;;14.85;3.88;;;4.30;99.90;;;;;;5088259;28;20043;-64
2023/12/27 09:42:01;;;;;;;13.20;4.43;;;3.90;99.90;;;;;;5089736;28;20066;-65
2023/12/27 09:44:27;;;;;;;13.85;4.05;;;3.90;99.90;;;;;;5107278;27;20491;-65
2023/12/27 09:46:55;;;;;;;23.58;4.20;;;3.90;99.90;;;;;;5089296;27;20599;-65
2023/12/27 09:49:24;;;;;;;16.88;3.72;;;4.00;99.90;;;;;;5123357;27;20051;-66
2023/12/27 09:51:50;;;;;;;22.15;4.85;;;4.00;99.90;;;;;;5094330;28;20192;-64
2023/12/27 09:54:17;;;;;;;21.13;4.82;;;4.00;99.90;;;;;;5124101;27;20087;-64
2023/12/27 09:56:44;;;;;;;11.30;3.80;;;4.00;99.90;;;;;;5091872;28;20043;-65
2023/12/27 09:59:16;;;;;;;15.45;3.70;;;4.00;99.90;;;;;;5094670;28;20039;-66
2023/12/27 10:01:44;;;;;;;18.42;4.45;;;4.00;99.90;;;;;;5083568;28;20048;-65
2023/12/27 10:04:28;;;;;;;17.92;4.47;;;4.60;99.90;;;;;;5091948;28;20130;-65
2023/12/27 10:06:57;;;;;;;16.70;4.40;;;4.10;99.90;;;;;;5095474;28;20550;-66
2023/12/27 10:09:23;;;;;;;17.88;3.97;;;4.10;99.90;;;;;;5085883;28;20135;-66
2023/12/27 10:11:49;;;;;;;15.48;4.10;;;4.10;99.90;;;;;;5121806;27;20618;-68
2023/12/27 10:14:17;;;;;;;19.60;4.90;;;4.20;99.90;;;;;;5092905;28;20127;-66
2023/12/27 10:16:42;;;;;;;17.65;4.45;;;4.80;99.90;;;;;;5091950;28;20044;-65
2023/12/27 10:19:44;;;;;;;20.25;5.15;;;4.20;99.90;;;;;;5083205;28;20055;-64
2023/12/27 10:22:11;;;;;;;;;;;4.20;99.90;;;;;;5121017;27;20034;-67
2023/12/27 10:24:38;;;;;;;15.70;5.10;;;4.20;99.90;;;;;;5131706;27;19923;-69
2023/12/27 10:27:05;;;;;;;20.40;5.10;;;4.30;99.90;;;;;;5082752;28;20040;-68
2023/12/27 10:29:32;;;;;;;18.88;5.35;;;4.30;99.90;;;;;;5096543;28;20488;-67
2023/12/27 10:32:02;;;;;;;18.80;5.95;;;4.30;99.90;;;;;;5091736;28;20150;-67
2023/12/27 10:34:28;;;;;;;15.10;5.68;;;4.40;99.90;;;;;;5094383;27;20071;-67
2023/12/27 10:36:55;;;;;;;15.50;5.88;;;4.40;99.90;;;;;;5078324;28;20075;-67
2023/12/27 10:39:21;;;;;;;22.63;5.07;;;4.40;99.90;;;;;;5075041;28;20524;-68
2023/12/27 10:41:47;;;;;;;16.70;5.63;;;4.40;99.90;;;;;;5106323;27;20055;-65
2023/12/27 10:44:17;;;;;;;15.38;5.68;;;4.50;99.90;;;;;;5074086;28;20081;-64
2023/12/27 10:46:44;;;;;;;21.08;5.35;;;4.70;99.90;;;;;;5077450;28;20051;-64
2023/12/27 10:49:15;;;;;;;18.77;5.40;;;4.50;99.90;;;;;;5108423;27;20047;-65
2023/12/27 10:51:42;;;;;;;17.98;5.35;;;4.50;99.90;;;;;;5085261;28;20059;-64
2023/12/27 10:54:12;;;;;;;21.98;5.63;;;4.50;99.90;;;;;;5091907;28;20046;-64
2023/12/27 10:56:39;;;;;;;21.73;5.80;;;4.60;99.90;;;;;;5116149;27;20058;-65
2023/12/27 10:59:06;;;;;;;22.30;5.50;;;4.90;99.90;;;;;;5073603;28;21930;-64
2023/12/27 11:01:38;;;;;;;16.42;5.60;;;5.20;99.90;;;;;;5080205;27;20168;-65
2023/12/27 11:04:06;;;;;;;;;;;4.60;99.90;;;;;;5081012;28;20055;-65
2023/12/27 11:06:38;;;;;;;16.50;5.88;;;4.70;99.90;;;;;;5092819;27;20720;-65
2023/12/27 11:09:09;;;;;;;19.38;6.60;;;4.70;99.90;;;;;;5079509;28;21140;-65
2023/12/27 11:11:39;;;;;;;20.00;6.05;;;4.70;99.90;;;;;;5079127;28;20059;-65
2023/12/27 11:14:08;;;;;;;22.88;6.03;;;4.70;99.90;;;;;;5064447;28;20062;-67
2023/12/27 11:16:35;;;;;;;19.17;5.88;;;4.00;99.90;;;;;;5082156;28;20496;-67
2023/12/27 11:19:06;;;;;;;17.73;6.28;;;4.70;99.90;;;;;;5079951;28;20823;-67
2023/12/27 11:21:36;;;;;;;14.40;6.35;;;4.80;99.90;;;;;;5076102;28;20077;-67
2023/12/27 11:24:04;;;;;;;15.52;6.15;;;4.70;99.90;;;;;;5077244;28;20053;-67
2023/12/27 11:26:33;;;;;;;19.88;5.72;;;4.70;99.90;;;;;;5089204;28;20568;-67
2023/12/27 11:29:06;;;;;;;18.83;6.95;;;4.70;99.90;;;;;;5068107;28;20052;-68
2023/12/27 11:31:32;;;;;;;19.20;6.78;;;4.70;99.90;;;;;;5088453;28;20047;-67
2023/12/27 11:33:58;;;;;;;24.13;7.00;;;4.70;99.90;;;;;;5088681;28;20043;-67
2023/12/27 11:36:25;;;;;;;16.95;7.03;;;4.80;99.90;;;;;;5090684;28;20043;-66
2023/12/27 11:38:53;;;;;;;18.65;6.68;;;4.90;99.90;;;;;;5120852;27;20085;-67
2023/12/27 11:41:21;;;;;;;21.00;7.00;;;5.60;99.90;;;;;;5092082;28;20059;-67
2023/12/27 11:44:07;;;;;;;25.70;7.38;;;4.80;99.90;;;;;;5084956;28;20373;-68
2023/12/27 11:46:33;;;;;;;28.95;7.57;;;4.90;99.90;;;;;;5092949;28;20530;-67
2023/12/27 11:49:00;;;;;;;23.40;7.43;;;4.90;99.90;;;;;;5092866;28;20056;-66
2023/12/27 11:51:34;;;;;;;21.40;7.25;;;5.20;99.90;;;;;;5070290;28;20074;-66
2023/12/27 11:54:01;;;;;;;24.10;8.27;;;4.90;99.90;;;;;;5120019;27;20052;-66
2023/12/27 11:56:32;;;;;;;26.33;9.00;;;4.90;99.90;;;;;;5079787;27;20058;-64
2023/12/27 11:59:01;;;;;;;23.20;8.07;;;4.90;99.90;;;;;;5120987;27;20051;-64
2023/12/27 12:01:35;;;;;;;20.92;7.82;;;4.90;99.90;;;;;;5078968;28;20617;-65
2023/12/27 12:04:13;;;;;;;21.08;7.57;;;5.20;99.90;;;;;;5078047;28;20055;-66
2023/12/27 12:06:54;;;;;;;24.27;8.25;;;4.90;99.90;;;;;;5128053;27;20558;-67
2023/12/27 12:09:36;;;;;;;20.20;8.07;;;5.60;99.90;;;;;;5089331;28;20649;-65
2023/12/27 12:12:18;;;;;;;17.23;8.45;;;4.90;99.90;;;;;;5082614;28;20055;-68
2023/12/27 12:14:44;;;;;;;;;;;4.90;99.90;;;;;;5093787;28;20051;-66
2023/12/27 12:17:10;;;;;;;21.15;8.27;;;4.90;99.90;;;;;;5077678;28;19985;-66
2023/12/27 12:19:36;;;;;;;22.90;9.18;;;5.00;99.90;;;;;;5087180;28;20456;-66
2023/12/27 12:22:03;;;;;;;17.55;8.20;;;5.00;99.90;;;;;;5081986;28;20067;-65
2023/12/27 12:24:29;;;;;;;25.38;9.43;;;4.90;99.90;;;;;;5076137;27;20036;-66
2023/12/27 12:26:56;;;;;;;21.55;8.82;;;5.00;99.90;;;;;;5064357;28;20050;-66
2023/12/27 12:29:24;;;;;;;20.77;8.60;;;5.50;99.90;;;;;;5110990;27;20048;-67
2023/12/27 12:31:50;;;;;;;22.52;8.75;;;4.90;99.90;;;;;;5083428;28;20047;-64
2023/12/27 12:34:16;;;;;;;23.08;9.25;;;5.00;99.90;;;;;;5115370;27;20374;-64
2023/12/27 12:36:42;;;;;;;17.85;8.65;;;5.10;99.90;;;;;;5082658;28;20087;-64
2023/12/27 12:39:08;;;;;;;19.23;9.07;;;5.00;99.90;;;;;;5087217;28;20047;-65
2023/12/27 12:41:34;;;;;;;18.98;8.43;;;5.00;99.90;;;;;;5078258;28;20503;-66
2023/12/27 12:44:01;;;;;;;19.23;9.57;;;5.00;99.90;;;;;;5128996;27;20091;-65
2023/12/27 12:46:27;;;;;;;20.40;10.25;;;5.00;99.90;;;;;;5130817;27;20667;-66
2023/12/27 12:48:53;;;;;;;23.13;10.27;;;5.10;99.90;;;;;;5089215;28;20971;-64